sensor_id;sensor_type;location;lat;lon;timestamp;pressure;altitude;pressure_sealevel;temperature;humidity
26915;BME280;14480;52.608;13.416;2023-02-18T09:31:17;141834.56;;;-8.83;100.00
26915;BME280;14480;52.608;13.416;2023-02-18T09:36:21;141846.94;;;-8.78;100.00
26915;BME280;14480;52.608;13.416;2023-02-18T09:41:29;141841.94;;;-8.80;100.00
26915;BME280;14480;52.608;13.416;2023-02-18T09:46:38;141883.94;;;-8.63;100.00
26915;BME280;14480;52.608;13.416;2023-02-18T09:51:43;141898.75;;;-8.57;100.00
26915;BME280;14480;52.608;13.416;2023-02-18T09:56:49;141908.66;;;-8.52;100.00
26915;BME280;14480;52.608;13.416;2023-02-18T10:01:56;141896.28;;;-8.58;100.00
26915;BME280;14480;52.608;13.416;2023-02-18T10:07:04;141964.16;;;-8.30;100.00
26915;BME280;14480;52.608;13.416;2023-02-18T10:12:12;141939.50;;;-8.40;100.00
26915;BME280;14480;52.608;13.416;2023-02-18T10:17:17;141895.03;;;-8.58;100.00
26915;BME280;14480;52.608;13.416;2023-02-18T10:22:23;141874.09;;;-8.67;100.00
26915;BME280;14480;52.608;13.416;2023-02-18T10:27:28;141856.78;;;-8.74;100.00
26915;BME280;14480;52.608;13.416;2023-02-18T10:32:35;141887.66;;;-8.61;100.00
26915;BME280;14480;52.608;13.416;2023-02-18T10:37:45;141902.50;;;-8.55;100.00
26915;BME280;14480;52.608;13.416;2023-02-18T10:42:56;141907.41;;;-8.53;100.00
26915;BME280;14480;52.608;13.416;2023-02-18T10:48:12;141900.03;;;-8.56;100.00
26915;BME280;14480;52.608;13.416;2023-02-18T10:53:25;141877.78;;;-8.65;100.00
26915;BME280;14480;52.608;13.416;2023-02-18T10:58:36;141895.03;;;-8.58;100.00
26915;BME280;14480;52.608;13.416;2023-02-18T11:03:47;141898.75;;;-8.57;100.00
26915;BME280;14480;52.608;13.416;2023-02-18T11:08:51;141896.28;;;-8.58;100.00
26915;BME280;14480;52.608;13.416;2023-02-18T11:13:56;141865.41;;;-8.70;100.00
26915;BME280;14480;52.608;13.416;2023-02-18T11:19:01;141923.44;;;-8.46;100.00
26915;BME280;14480;52.608;13.416;2023-02-18T11:24:06;141964.16;;;-8.30;100.00
26915;BME280;14480;52.608;13.416;2023-02-18T11:29:13;141943.22;;;-8.38;100.00
26915;BME280;14480;52.608;13.416;2023-02-18T11:34:22;141954.25;;;-8.34;100.00
26915;BME280;14480;52.608;13.416;2023-02-18T11:39:27;141953.06;;;-8.34;100.00
26915;BME280;14480;52.608;13.416;2023-02-18T11:44:33;141956.78;;;-8.33;100.00
26915;BME280;14480;52.608;13.416;2023-02-18T11:49:41;141937.06;;;-8.41;100.00
26915;BME280;14480;52.608;13.416;2023-02-18T11:54:57;141903.72;;;-8.55;100.00
26915;BME280;14480;52.608;13.416;2023-02-18T12:00:02;141919.75;;;-8.48;100.00
26915;BME280;14480;52.608;13.416;2023-02-18T12:05:11;141896.28;;;-8.58;100.00
26915;BME280;14480;52.608;13.416;2023-02-18T12:10:21;141813.56;;;-8.92;100.00
26915;BME280;14480;52.608;13.416;2023-02-18T12:15:28;141920.97;;;-8.47;100.00
26915;BME280;14480;52.608;13.416;2023-02-18T12:20:54;141955.53;;;-8.33;100.00
26915;BME280;14480;52.608;13.416;2023-02-18T12:26:04;141974.03;;;-8.26;100.00
26915;BME280;14480;52.608;13.416;2023-02-18T12:31:21;141995.06;;;-8.17;100.00
26915;BME280;14480;52.608;13.416;2023-02-18T12:36:36;142025.94;;;-8.04;100.00
26915;BME280;14480;52.608;13.416;2023-02-18T12:41:51;142061.75;;;-7.89;100.00
26915;BME280;14480;52.608;13.416;2023-02-18T12:47:02;142100.06;;;-7.74;100.00
26915;BME280;14480;52.608;13.416;2023-02-18T12:52:13;142186.59;;;-7.38;100.00
26915;BME280;14480;52.608;13.416;2023-02-18T12:57:30;142274.34;;;-7.02;100.00
26915;BME280;14480;52.608;13.416;2023-02-18T13:02:41;142305.25;;;-6.89;100.00
26915;BME280;14480;52.608;13.416;2023-02-18T13:07:53;142318.84;;;-6.84;100.00
26915;BME280;14480;52.608;13.416;2023-02-18T13:13:06;142365.84;;;-6.64;100.00
26915;BME280;14480;52.608;13.416;2023-02-18T13:18:11;142398.00;;;-6.51;100.00
26915;BME280;14480;52.608;13.416;2023-02-18T13:23:18;142457.38;;;-6.27;100.00
26915;BME280;14480;52.608;13.416;2023-02-18T13:28:25;142449.97;;;-6.30;100.00
26915;BME280;14480;52.608;13.416;2023-02-18T13:33:35;142487.09;;;-6.14;100.00
26915;BME280;14480;52.608;13.416;2023-02-18T13:38:52;142471.03;;;-6.21;100.00
26915;BME280;14480;52.608;13.416;2023-02-18T13:43:58;142499.47;;;-6.09;100.00
26915;BME280;14480;52.608;13.416;2023-02-18T13:49:03;142497.00;;;-6.10;100.00
26915;BME280;14480;52.608;13.416;2023-02-18T13:54:12;142532.88;;;-5.96;100.00
26915;BME280;14480;52.608;13.416;2023-02-18T13:59:24;142532.88;;;-5.96;100.00
26915;BME280;14480;52.608;13.416;2023-02-18T14:04:35;142536.59;;;-5.94;100.00
26915;BME280;14480;52.608;13.416;2023-02-18T14:09:42;142535.34;;;-5.95;100.00
26915;BME280;14480;52.608;13.416;2023-02-18T14:14:48;142594.72;;;-5.70;100.00
26915;BME280;14480;52.608;13.416;2023-02-18T14:19:52;142584.84;;;-5.74;100.00
26915;BME280;14480;52.608;13.416;2023-02-18T14:24:59;142578.66;;;-5.77;100.00
26915;BME280;14480;52.608;13.416;2023-02-18T14:30:05;142547.72;;;-5.90;100.00
26915;BME280;14480;52.608;13.416;2023-02-18T14:35:17;142553.91;;;-5.87;100.00
26915;BME280;14480;52.608;13.416;2023-02-18T14:40:32;142589.78;;;-5.72;100.00
26915;BME280;14480;52.608;13.416;2023-02-18T14:46:01;142597.19;;;-5.69;100.00
26915;BME280;14480;52.608;13.416;2023-02-18T14:51:09;142594.72;;;-5.70;100.00
26915;BME280;14480;52.608;13.416;2023-02-18T14:56:18;142579.91;;;-5.76;100.00
26915;BME280;14480;52.608;13.416;2023-02-18T15:01:27;142569.97;;;-5.80;100.00
26915;BME280;14480;52.608;13.416;2023-02-18T15:06:32;142561.31;;;-5.84;100.00
26915;BME280;14480;52.608;13.416;2023-02-18T15:11:38;142535.34;;;-5.95;100.00
26915;BME280;14480;52.608;13.416;2023-02-18T15:16:43;142514.31;;;-6.03;100.00
26915;BME280;14480;52.608;13.416;2023-02-18T15:21:47;142365.84;;;-6.64;100.00
26915;BME280;14480;52.608;13.416;2023-02-18T15:26:53;142318.84;;;-6.84;100.00
26915;BME280;14480;52.608;13.416;2023-02-18T15:31:57;142301.56;;;-6.91;100.00
26915;BME280;14480;52.608;13.416;2023-02-18T15:37:03;142151.97;;;-7.52;100.00
26915;BME280;14480;52.608;13.416;2023-02-18T15:42:11;142098.84;;;-7.74;100.00
26915;BME280;14480;52.608;13.416;2023-02-18T15:47:18;142121.03;;;-7.65;100.00
26915;BME280;14480;52.608;13.416;2023-02-18T15:52:25;142086.44;;;-7.79;100.00
26915;BME280;14480;52.608;13.416;2023-02-18T15:57:31;142066.66;;;-7.87;100.00
26915;BME280;14480;52.608;13.416;2023-02-18T16:02:48;142014.81;;;-8.09;100.00
26915;BME280;14480;52.608;13.416;2023-02-18T16:07:55;141996.28;;;-8.16;100.00
26915;BME280;14480;52.608;13.416;2023-02-18T16:13:00;141966.63;;;-8.29;100.00
26915;BME280;14480;52.608;13.416;2023-02-18T16:18:04;141949.38;;;-8.36;100.00
26915;BME280;14480;52.608;13.416;2023-02-18T16:23:09;141903.72;;;-8.55;100.00
26915;BME280;14480;52.608;13.416;2023-02-18T16:28:15;141830.84;;;-8.85;100.00
26915;BME280;14480;52.608;13.416;2023-02-18T16:33:22;141750.63;;;-9.18;100.00
26915;BME280;14480;52.608;13.416;2023-02-18T16:38:32;141701.25;;;-9.38;100.00
26915;BME280;14480;52.608;13.416;2023-02-18T16:43:37;141681.56;;;-9.46;100.00
26915;BME280;14480;52.608;13.416;2023-02-18T16:48:43;141642.03;;;-9.62;100.00
26915;BME280;14480;52.608;13.416;2023-02-18T16:53:47;141626.03;;;-9.69;100.00
26915;BME280;14480;52.608;13.416;2023-02-18T16:58:52;141610.00;;;-9.76;100.00
26915;BME280;14480;52.608;13.416;2023-02-18T17:03:56;141598.91;;;-9.80;100.00
26915;BME280;14480;52.608;13.416;2023-02-18T17:09:00;141591.50;;;-9.83;100.00
26915;BME280;14480;52.608;13.416;2023-02-18T17:14:08;141566.84;;;-9.93;100.00
26915;BME280;14480;52.608;13.416;2023-02-18T17:19:13;141561.88;;;-9.95;100.00
26915;BME280;14480;52.608;13.416;2023-02-18T17:24:17;141571.78;;;-9.91;100.00
26915;BME280;14480;52.608;13.416;2023-02-18T17:29:25;141538.50;;;-10.05;100.00
26915;BME280;14480;52.608;13.416;2023-02-18T17:34:29;141571.78;;;-9.91;100.00
26915;BME280;14480;52.608;13.416;2023-02-18T17:39:33;141554.50;;;-9.98;100.00
26915;BME280;14480;52.608;13.416;2023-02-18T17:44:40;141540.94;;;-10.04;100.00
26915;BME280;14480;52.608;13.416;2023-02-18T17:49:44;141534.78;;;-10.07;100.00
26915;BME280;14480;52.608;13.416;2023-02-18T17:54:48;141515.06;;;-10.15;100.00
26915;BME280;14480;52.608;13.416;2023-02-18T17:59:53;141527.38;;;-10.10;100.00
26915;BME280;14480;52.608;13.416;2023-02-18T18:04:59;141526.13;;;-10.10;100.00
26915;BME280;14480;52.608;13.416;2023-02-18T18:10:03;141523.66;;;-10.11;100.00
26915;BME280;14480;52.608;13.416;2023-02-18T18:15:15;141507.66;;;-10.18;100.00
26915;BME280;14480;52.608;13.416;2023-02-18T18:20:22;141519.97;;;-10.13;100.00
26915;BME280;14480;52.608;13.416;2023-02-18T18:25:31;141519.97;;;-10.13;100.00
26915;BME280;14480;52.608;13.416;2023-02-18T18:30:40;141513.81;;;-10.15;100.00
26915;BME280;14480;52.608;13.416;2023-02-18T18:35:45;141497.81;;;-10.22;100.00
26915;BME280;14480;52.608;13.416;2023-02-18T18:40:54;141471.94;;;-10.33;100.00
26915;BME280;14480;52.608;13.416;2023-02-18T18:45:59;141457.16;;;-10.39;100.00
26915;BME280;14480;52.608;13.416;2023-02-18T18:51:03;141448.50;;;-10.42;100.00
26915;BME280;14480;52.608;13.416;2023-02-18T18:56:07;141414.00;;;-10.56;100.00
26915;BME280;14480;52.608;13.416;2023-02-18T19:01:14;141443.59;;;-10.44;100.00
26915;BME280;14480;52.608;13.416;2023-02-18T19:06:18;141420.16;;;-10.54;100.00
26915;BME280;14480;52.608;13.416;2023-02-18T19:11:25;141453.47;;;-10.40;100.00
26915;BME280;14480;52.608;13.416;2023-02-18T19:21:50;141499.06;;;-10.21;100.00
26915;BME280;14480;52.608;13.416;2023-02-18T19:26:59;141522.44;;;-10.12;100.00
26915;BME280;14480;52.608;13.416;2023-02-18T19:32:04;141539.72;;;-10.05;100.00
26915;BME280;14480;52.608;13.416;2023-02-18T19:37:11;141521.22;;;-10.12;100.00
26915;BME280;14480;52.608;13.416;2023-02-18T19:42:16;141491.66;;;-10.24;100.00
26915;BME280;14480;52.608;13.416;2023-02-18T19:47:22;141480.59;;;-10.29;100.00
26915;BME280;14480;52.608;13.416;2023-02-18T19:52:29;141485.53;;;-10.27;100.00
26915;BME280;14480;52.608;13.416;2023-02-18T19:57:33;141533.53;;;-10.07;100.00
26915;BME280;14480;52.608;13.416;2023-02-18T20:02:37;141499.06;;;-10.21;100.00
26915;BME280;14480;52.608;13.416;2023-02-18T20:07:44;141453.47;;;-10.40;100.00
26915;BME280;14480;52.608;13.416;2023-02-18T20:12:50;141462.09;;;-10.37;100.00
26915;BME280;14480;52.608;13.416;2023-02-18T20:17:55;141452.25;;;-10.41;100.00
26915;BME280;14480;52.608;13.416;2023-02-18T20:23:00;141491.66;;;-10.24;100.00
26915;BME280;14480;52.608;13.416;2023-02-18T20:28:04;141474.41;;;-10.32;100.00
26915;BME280;14480;52.608;13.416;2023-02-18T20:33:07;141495.34;;;-10.23;100.00
26915;BME280;14480;52.608;13.416;2023-02-18T20:38:13;141465.78;;;-10.35;100.00
26915;BME280;14480;52.608;13.416;2023-02-18T20:43:19;141487.97;;;-10.26;100.00
26915;BME280;14480;52.608;13.416;2023-02-18T20:48:23;141455.94;;;-10.39;100.00
26915;BME280;14480;52.608;13.416;2023-02-18T20:53:30;141439.88;;;-10.46;100.00
26915;BME280;14480;52.608;13.416;2023-02-18T20:58:34;141441.13;;;-10.45;100.00
26915;BME280;14480;52.608;13.416;2023-02-18T21:03:38;141441.13;;;-10.45;100.00
26915;BME280;14480;52.608;13.416;2023-02-18T21:08:44;141426.34;;;-10.51;100.00
26915;BME280;14480;52.608;13.416;2023-02-18T21:13:50;141436.19;;;-10.47;100.00
26915;BME280;14480;52.608;13.416;2023-02-18T21:18:55;141410.31;;;-10.58;100.00
26915;BME280;14480;52.608;13.416;2023-02-18T21:29:29;141421.38;;;-10.53;100.00
26915;BME280;14480;52.608;13.416;2023-02-18T21:34:34;141417.69;;;-10.55;100.00
26915;BME280;14480;52.608;13.416;2023-02-18T21:39:39;141415.22;;;-10.56;100.00
26915;BME280;14480;52.608;13.416;2023-02-18T21:44:47;141384.44;;;-10.69;100.00
26915;BME280;14480;52.608;13.416;2023-02-18T21:49:52;141421.38;;;-10.53;100.00
26915;BME280;14480;52.608;13.416;2023-02-18T21:55:00;141381.97;;;-10.70;100.00
26915;BME280;14480;52.608;13.416;2023-02-18T22:00:07;141381.97;;;-10.70;100.00
26915;BME280;14480;52.608;13.416;2023-02-18T22:05:22;141402.94;;;-10.61;100.00
26915;BME280;14480;52.608;13.416;2023-02-18T22:10:27;141364.69;;;-10.77;100.00
26915;BME280;14480;52.608;13.416;2023-02-18T22:15:33;141395.56;;;-10.64;100.00
26915;BME280;14480;52.608;13.416;2023-02-18T22:20:42;141399.25;;;-10.63;100.00
26915;BME280;14480;52.608;13.416;2023-02-18T22:25:46;141388.13;;;-10.67;100.00
26915;BME280;14480;52.608;13.416;2023-02-18T22:30:52;141404.16;;;-10.61;100.00
26915;BME280;14480;52.608;13.416;2023-02-18T22:35:58;141379.50;;;-10.71;100.00
26915;BME280;14480;52.608;13.416;2023-02-18T22:41:07;141402.94;;;-10.61;100.00
26915;BME280;14480;52.608;13.416;2023-02-18T22:46:16;141407.84;;;-10.59;100.00
26915;BME280;14480;52.608;13.416;2023-02-18T22:51:21;141402.94;;;-10.61;100.00
26915;BME280;14480;52.608;13.416;2023-02-18T22:56:26;141396.78;;;-10.64;100.00
26915;BME280;14480;52.608;13.416;2023-02-18T23:01:32;141396.78;;;-10.64;100.00
